sensor_id;sensor_type;location;lat;lon;timestamp;temperature;humidity
70074;DHT22;57445;51.058;3.698;2023-04-01T00:02:01;11.10;99.90
70074;DHT22;57445;51.058;3.698;2023-04-01T00:04:29;11.20;99.90
70074;DHT22;57445;51.058;3.698;2023-04-01T00:06:57;11.20;99.90
70074;DHT22;57445;51.058;3.698;2023-04-01T00:09:24;11.10;99.90
70074;DHT22;57445;51.058;3.698;2023-04-01T00:11:52;11.20;99.90
70074;DHT22;57445;51.058;3.698;2023-04-01T00:14:28;11.20;99.90
70074;DHT22;57445;51.058;3.698;2023-04-01T00:17:01;11.20;99.90
70074;DHT22;57445;51.058;3.698;2023-04-01T00:19:33;11.10;99.90
70074;DHT22;57445;51.058;3.698;2023-04-01T00:22:06;11.00;99.90
70074;DHT22;57445;51.058;3.698;2023-04-01T00:24:38;10.90;99.90
70074;DHT22;57445;51.058;3.698;2023-04-01T00:27:10;11.00;99.90
70074;DHT22;57445;51.058;3.698;2023-04-01T00:29:44;10.80;99.90
70074;DHT22;57445;51.058;3.698;2023-04-01T00:32:16;10.90;99.90
70074;DHT22;57445;51.058;3.698;2023-04-01T00:34:44;10.90;99.90
70074;DHT22;57445;51.058;3.698;2023-04-01T00:37:12;11.00;99.90
70074;DHT22;57445;51.058;3.698;2023-04-01T00:39:41;11.00;99.90
70074;DHT22;57445;51.058;3.698;2023-04-01T00:42:15;10.90;99.90
70074;DHT22;57445;51.058;3.698;2023-04-01T00:44:50;11.00;99.90
70074;DHT22;57445;51.058;3.698;2023-04-01T00:47:22;10.80;99.90
70074;DHT22;57445;51.058;3.698;2023-04-01T00:49:59;11.00;99.90
70074;DHT22;57445;51.058;3.698;2023-04-01T00:52:31;10.70;99.90
70074;DHT22;57445;51.058;3.698;2023-04-01T00:55:01;11.00;99.90
70074;DHT22;57445;51.058;3.698;2023-04-01T00:57:34;10.80;99.90
70074;DHT22;57445;51.058;3.698;2023-04-01T01:00:11;11.10;99.90
70074;DHT22;57445;51.058;3.698;2023-04-01T01:02:41;10.70;99.90
70074;DHT22;57445;51.058;3.698;2023-04-01T01:05:12;10.50;99.90
70074;DHT22;57445;51.058;3.698;2023-04-01T01:07:44;10.50;99.90
70074;DHT22;57445;51.058;3.698;2023-04-01T01:10:17;10.40;99.90
70074;DHT22;57445;51.058;3.698;2023-04-01T01:12:49;10.40;99.90
70074;DHT22;57445;51.058;3.698;2023-04-01T01:15:32;10.60;99.90
70074;DHT22;57445;51.058;3.698;2023-04-01T01:18:08;10.50;99.90
70074;DHT22;57445;51.058;3.698;2023-04-01T01:24:08;10.50;99.90
70074;DHT22;57445;51.058;3.698;2023-04-01T01:26:58;10.60;99.90
70074;DHT22;57445;51.058;3.698;2023-04-01T01:29:50;10.70;99.90
70074;DHT22;57445;51.058;3.698;2023-04-01T01:32:38;10.70;99.90
70074;DHT22;57445;51.058;3.698;2023-04-01T01:35:19;10.80;99.90
70074;DHT22;57445;51.058;3.698;2023-04-01T01:37:52;10.70;99.90
70074;DHT22;57445;51.058;3.698;2023-04-01T01:40:22;10.50;99.90
70074;DHT22;57445;51.058;3.698;2023-04-01T01:42:55;10.50;99.90
70074;DHT22;57445;51.058;3.698;2023-04-01T01:45:26;10.40;99.90
70074;DHT22;57445;51.058;3.698;2023-04-01T01:47:59;10.50;99.90
70074;DHT22;57445;51.058;3.698;2023-04-01T01:50:28;10.50;99.90
70074;DHT22;57445;51.058;3.698;2023-04-01T01:53:02;10.60;99.90
70074;DHT22;57445;51.058;3.698;2023-04-01T01:55:36;10.70;99.90
70074;DHT22;57445;51.058;3.698;2023-04-01T01:58:07;10.70;99.90
70074;DHT22;57445;51.058;3.698;2023-04-01T02:00:45;10.70;99.90
70074;DHT22;57445;51.058;3.698;2023-04-01T02:03:20;10.60;99.90
70074;DHT22;57445;51.058;3.698;2023-04-01T02:05:57;10.60;99.90
70074;DHT22;57445;51.058;3.698;2023-04-01T02:08:34;10.60;99.90
70074;DHT22;57445;51.058;3.698;2023-04-01T02:11:11;10.40;99.90
70074;DHT22;57445;51.058;3.698;2023-04-01T02:13:43;10.50;99.90
70074;DHT22;57445;51.058;3.698;2023-04-01T02:16:20;10.50;99.90
70074;DHT22;57445;51.058;3.698;2023-04-01T02:18:50;10.70;99.90
70074;DHT22;57445;51.058;3.698;2023-04-01T02:21:22;10.40;99.90
70074;DHT22;57445;51.058;3.698;2023-04-01T02:23:56;10.30;99.90
70074;DHT22;57445;51.058;3.698;2023-04-01T02:26:26;10.30;99.90
70074;DHT22;57445;51.058;3.698;2023-04-01T02:28:54;10.30;99.90
70074;DHT22;57445;51.058;3.698;2023-04-01T02:31:23;10.20;99.90
70074;DHT22;57445;51.058;3.698;2023-04-01T02:33:59;10.10;99.90
70074;DHT22;57445;51.058;3.698;2023-04-01T02:36:36;10.30;99.90
70074;DHT22;57445;51.058;3.698;2023-04-01T02:39:05;10.20;99.90
70074;DHT22;57445;51.058;3.698;2023-04-01T02:41:39;10.30;99.90
70074;DHT22;57445;51.058;3.698;2023-04-01T02:44:13;10.60;99.90
70074;DHT22;57445;51.058;3.698;2023-04-01T02:46:46;10.40;99.90
70074;DHT22;57445;51.058;3.698;2023-04-01T02:49:18;10.30;99.90
70074;DHT22;57445;51.058;3.698;2023-04-01T02:51:52;10.30;99.90
70074;DHT22;57445;51.058;3.698;2023-04-01T02:54:20;10.30;99.90
70074;DHT22;57445;51.058;3.698;2023-04-01T02:56:48;10.40;99.90
70074;DHT22;57445;51.058;3.698;2023-04-01T02:59:20;10.50;99.90
70074;DHT22;57445;51.058;3.698;2023-04-01T03:01:52;10.50;99.90
70074;DHT22;57445;51.058;3.698;2023-04-01T03:04:20;10.50;99.90
70074;DHT22;57445;51.058;3.698;2023-04-01T03:06:54;10.50;99.90
70074;DHT22;57445;51.058;3.698;2023-04-01T03:09:22;10.50;99.90
70074;DHT22;57445;51.058;3.698;2023-04-01T03:11:49;10.60;99.90
70074;DHT22;57445;51.058;3.698;2023-04-01T03:14:22;10.40;99.90
70074;DHT22;57445;51.058;3.698;2023-04-01T03:16:54;10.40;99.90
70074;DHT22;57445;51.058;3.698;2023-04-01T03:19:27;10.50;99.90
70074;DHT22;57445;51.058;3.698;2023-04-01T03:21:56;10.40;99.90
70074;DHT22;57445;51.058;3.698;2023-04-01T03:24:28;10.40;99.90
70074;DHT22;57445;51.058;3.698;2023-04-01T03:26:56;10.40;99.90
70074;DHT22;57445;51.058;3.698;2023-04-01T03:29:31;10.20;99.90
70074;DHT22;57445;51.058;3.698;2023-04-01T03:32:03;10.10;99.90
70074;DHT22;57445;51.058;3.698;2023-04-01T03:34:31;10.00;99.90
70074;DHT22;57445;51.058;3.698;2023-04-01T03:37:00;10.00;99.90
70074;DHT22;57445;51.058;3.698;2023-04-01T03:39:28;9.90;99.90
70074;DHT22;57445;51.058;3.698;2023-04-01T03:42:01;9.90;99.90
70074;DHT22;57445;51.058;3.698;2023-04-01T03:44:34;9.80;99.90
70074;DHT22;57445;51.058;3.698;2023-04-01T03:47:02;9.80;99.90
70074;DHT22;57445;51.058;3.698;2023-04-01T03:49:35;9.80;99.90
70074;DHT22;57445;51.058;3.698;2023-04-01T03:52:11;9.80;99.90
70074;DHT22;57445;51.058;3.698;2023-04-01T03:54:39;9.80;99.90
70074;DHT22;57445;51.058;3.698;2023-04-01T03:57:11;9.80;99.90
70074;DHT22;57445;51.058;3.698;2023-04-01T03:59:43;9.80;99.90
70074;DHT22;57445;51.058;3.698;2023-04-01T04:02:15;9.80;99.90
70074;DHT22;57445;51.058;3.698;2023-04-01T04:04:43;9.80;99.90
70074;DHT22;57445;51.058;3.698;2023-04-01T04:07:18;9.80;99.90
70074;DHT22;57445;51.058;3.698;2023-04-01T04:09:51;9.80;99.90
70074;DHT22;57445;51.058;3.698;2023-04-01T04:12:18;9.90;99.90
70074;DHT22;57445;51.058;3.698;2023-04-01T04:14:46;9.90;99.90
70074;DHT22;57445;51.058;3.698;2023-04-01T04:17:18;10.00;99.90
70074;DHT22;57445;51.058;3.698;2023-04-01T04:19:46;10.00;99.90
70074;DHT22;57445;51.058;3.698;2023-04-01T04:22:14;9.90;99.90
70074;DHT22;57445;51.058;3.698;2023-04-01T04:24:47;9.70;99.90
70074;DHT22;57445;51.058;3.698;2023-04-01T04:27:20;9.70;99.90
70074;DHT22;57445;51.058;3.698;2023-04-01T04:29:47;9.90;99.90
70074;DHT22;57445;51.058;3.698;2023-04-01T04:32:15;9.60;99.90
70074;DHT22;57445;51.058;3.698;2023-04-01T04:34:43;9.70;99.90
70074;DHT22;57445;51.058;3.698;2023-04-01T04:37:16;9.70;99.90
70074;DHT22;57445;51.058;3.698;2023-04-01T04:39:49;9.80;99.90
70074;DHT22;57445;51.058;3.698;2023-04-01T04:42:17;9.80;99.90
70074;DHT22;57445;51.058;3.698;2023-04-01T04:44:49;9.80;99.90
70074;DHT22;57445;51.058;3.698;2023-04-01T04:47:17;9.70;99.90
70074;DHT22;57445;51.058;3.698;2023-04-01T04:49:44;9.70;99.90
70074;DHT22;57445;51.058;3.698;2023-04-01T04:52:12;9.70;99.90
70074;DHT22;57445;51.058;3.698;2023-04-01T04:54:40;9.60;99.90
70074;DHT22;57445;51.058;3.698;2023-04-01T04:57:09;9.70;99.90
70074;DHT22;57445;51.058;3.698;2023-04-01T04:59:41;9.70;99.90
70074;DHT22;57445;51.058;3.698;2023-04-01T05:02:14;9.70;99.90
70074;DHT22;57445;51.058;3.698;2023-04-01T05:04:41;9.70;99.90
70074;DHT22;57445;51.058;3.698;2023-04-01T05:07:14;9.70;99.90
70074;DHT22;57445;51.058;3.698;2023-04-01T05:09:42;9.90;99.90
70074;DHT22;57445;51.058;3.698;2023-04-01T05:12:13;9.80;99.90
70074;DHT22;57445;51.058;3.698;2023-04-01T05:14:46;9.80;99.90
70074;DHT22;57445;51.058;3.698;2023-04-01T05:17:14;9.80;99.90
70074;DHT22;57445;51.058;3.698;2023-04-01T05:19:49;9.80;99.90
70074;DHT22;57445;51.058;3.698;2023-04-01T05:22:17;9.80;99.90
70074;DHT22;57445;51.058;3.698;2023-04-01T05:24:45;9.80;99.90
70074;DHT22;57445;51.058;3.698;2023-04-01T05:27:14;9.70;99.90
70074;DHT22;57445;51.058;3.698;2023-04-01T05:29:47;9.80;99.90
70074;DHT22;57445;51.058;3.698;2023-04-01T05:32:15;9.80;99.90
70074;DHT22;57445;51.058;3.698;2023-04-01T05:34:44;9.80;99.90
70074;DHT22;57445;51.058;3.698;2023-04-01T05:37:16;9.70;99.90
70074;DHT22;57445;51.058;3.698;2023-04-01T05:39:49;9.70;99.90
70074;DHT22;57445;51.058;3.698;2023-04-01T05:42:23;9.80;99.90
70074;DHT22;57445;51.058;3.698;2023-04-01T05:44:51;9.50;99.90
70074;DHT22;57445;51.058;3.698;2023-04-01T05:47:20;9.50;99.90
70074;DHT22;57445;51.058;3.698;2023-04-01T05:49:48;9.50;99.90
70074;DHT22;57445;51.058;3.698;2023-04-01T05:52:18;9.50;99.90
70074;DHT22;57445;51.058;3.698;2023-04-01T05:54:50;9.80;99.90
70074;DHT22;57445;51.058;3.698;2023-04-01T05:57:23;9.50;99.90
70074;DHT22;57445;51.058;3.698;2023-04-01T05:59:51;9.70;99.90
70074;DHT22;57445;51.058;3.698;2023-04-01T06:02:19;9.50;99.90
70074;DHT22;57445;51.058;3.698;2023-04-01T06:04:47;9.50;99.90
70074;DHT22;57445;51.058;3.698;2023-04-01T06:07:17;9.50;99.90
70074;DHT22;57445;51.058;3.698;2023-04-01T06:09:45;9.50;99.90
70074;DHT22;57445;51.058;3.698;2023-04-01T06:12:46;9.60;99.90
70074;DHT22;57445;51.058;3.698;2023-04-01T06:15:30;9.60;99.90
70074;DHT22;57445;51.058;3.698;2023-04-01T06:21:23;9.60;99.90
70074;DHT22;57445;51.058;3.698;2023-04-01T06:26:53;9.90;99.90
70074;DHT22;57445;51.058;3.698;2023-04-01T06:29:50;10.10;99.90
70074;DHT22;57445;51.058;3.698;2023-04-01T06:32:48;9.70;99.90
70074;DHT22;57445;51.058;3.698;2023-04-01T06:35:31;9.70;99.90
70074;DHT22;57445;51.058;3.698;2023-04-01T06:38:18;9.80;99.90
70074;DHT22;57445;51.058;3.698;2023-04-01T06:44:00;9.90;99.90
70074;DHT22;57445;51.058;3.698;2023-04-01T06:46:41;10.00;99.90
70074;DHT22;57445;51.058;3.698;2023-04-01T06:49:33;9.90;99.90
70074;DHT22;57445;51.058;3.698;2023-04-01T06:52:11;10.00;99.90
70074;DHT22;57445;51.058;3.698;2023-04-01T06:54:47;10.00;99.90
70074;DHT22;57445;51.058;3.698;2023-04-01T06:57:24;9.90;99.90
70074;DHT22;57445;51.058;3.698;2023-04-01T06:59:57;9.90;99.90
70074;DHT22;57445;51.058;3.698;2023-04-01T07:02:34;10.00;99.90
70074;DHT22;57445;51.058;3.698;2023-04-01T07:05:05;9.90;99.90
70074;DHT22;57445;51.058;3.698;2023-04-01T07:07:35;10.00;99.90
70074;DHT22;57445;51.058;3.698;2023-04-01T07:10:13;10.00;99.90
70074;DHT22;57445;51.058;3.698;2023-04-01T07:12:46;9.90;99.90
70074;DHT22;57445;51.058;3.698;2023-04-01T07:15:22;9.80;99.90
70074;DHT22;57445;51.058;3.698;2023-04-01T07:17:55;10.00;99.90
70074;DHT22;57445;51.058;3.698;2023-04-01T07:20:26;10.40;99.90
70074;DHT22;57445;51.058;3.698;2023-04-01T07:22:58;10.10;99.90
70074;DHT22;57445;51.058;3.698;2023-04-01T07:25:35;10.10;99.90
70074;DHT22;57445;51.058;3.698;2023-04-01T07:28:06;10.00;99.90
70074;DHT22;57445;51.058;3.698;2023-04-01T07:30:52;10.00;99.90
70074;DHT22;57445;51.058;3.698;2023-04-01T07:33:26;10.00;99.90
70074;DHT22;57445;51.058;3.698;2023-04-01T07:36:05;10.00;99.90
70074;DHT22;57445;51.058;3.698;2023-04-01T07:38:42;9.80;99.90
70074;DHT22;57445;51.058;3.698;2023-04-01T07:41:23;10.00;99.90
70074;DHT22;57445;51.058;3.698;2023-04-01T07:44:00;10.30;99.90
70074;DHT22;57445;51.058;3.698;2023-04-01T07:46:53;9.90;99.90
70074;DHT22;57445;51.058;3.698;2023-04-01T07:49:37;9.80;99.90
70074;DHT22;57445;51.058;3.698;2023-04-01T07:52:09;9.80;99.90
70074;DHT22;57445;51.058;3.698;2023-04-01T07:54:48;9.80;99.90
70074;DHT22;57445;51.058;3.698;2023-04-01T07:57:20;9.80;99.90
70074;DHT22;57445;51.058;3.698;2023-04-01T08:00:00;9.90;99.90
70074;DHT22;57445;51.058;3.698;2023-04-01T08:02:41;9.90;99.90
70074;DHT22;57445;51.058;3.698;2023-04-01T08:05:23;9.80;99.90
70074;DHT22;57445;51.058;3.698;2023-04-01T08:07:54;9.80;99.90
70074;DHT22;57445;51.058;3.698;2023-04-01T08:10:34;9.80;99.90
70074;DHT22;57445;51.058;3.698;2023-04-01T08:13:11;10.00;99.90
70074;DHT22;57445;51.058;3.698;2023-04-01T08:15:48;10.00;99.90
70074;DHT22;57445;51.058;3.698;2023-04-01T08:18:26;10.10;99.90
70074;DHT22;57445;51.058;3.698;2023-04-01T08:21:05;10.00;99.90
70074;DHT22;57445;51.058;3.698;2023-04-01T08:23:43;10.10;99.90
70074;DHT22;57445;51.058;3.698;2023-04-01T08:26:17;10.00;99.90
70074;DHT22;57445;51.058;3.698;2023-04-01T08:28:52;10.10;99.90
70074;DHT22;57445;51.058;3.698;2023-04-01T08:31:26;10.10;99.90
70074;DHT22;57445;51.058;3.698;2023-04-01T08:33:57;10.10;99.90
70074;DHT22;57445;51.058;3.698;2023-04-01T08:36:35;10.20;99.90
70074;DHT22;57445;51.058;3.698;2023-04-01T08:39:10;10.20;99.90
70074;DHT22;57445;51.058;3.698;2023-04-01T08:42:10;10.20;99.90
70074;DHT22;57445;51.058;3.698;2023-04-01T08:45:06;10.30;99.90
70074;DHT22;57445;51.058;3.698;2023-04-01T08:48:04;10.10;99.90
70074;DHT22;57445;51.058;3.698;2023-04-01T08:51:00;10.20;99.90
70074;DHT22;57445;51.058;3.698;2023-04-01T08:53:48;10.20;99.90
70074;DHT22;57445;51.058;3.698;2023-04-01T08:56:21;10.40;99.90
70074;DHT22;57445;51.058;3.698;2023-04-01T08:59:17;10.40;99.90
70074;DHT22;57445;51.058;3.698;2023-04-01T09:02:05;10.50;99.90
70074;DHT22;57445;51.058;3.698;2023-04-01T09:04:57;10.40;99.90
70074;DHT22;57445;51.058;3.698;2023-04-01T09:07:38;10.60;99.90
70074;DHT22;57445;51.058;3.698;2023-04-01T09:13:27;10.60;99.90
70074;DHT22;57445;51.058;3.698;2023-04-01T09:16:16;10.80;99.90
70074;DHT22;57445;51.058;3.698;2023-04-01T09:22:06;11.00;99.90
70074;DHT22;57445;51.058;3.698;2023-04-01T09:27:57;10.70;99.90
70074;DHT22;57445;51.058;3.698;2023-04-01T09:30:47;10.70;99.90
70074;DHT22;57445;51.058;3.698;2023-04-01T09:36:38;10.60;99.90
70074;DHT22;57445;51.058;3.698;2023-04-01T09:39:31;10.50;99.90
70074;DHT22;57445;51.058;3.698;2023-04-01T09:42:35;10.60;99.90
70074;DHT22;57445;51.058;3.698;2023-04-01T09:45:24;10.60;99.90
70074;DHT22;57445;51.058;3.698;2023-04-01T09:48:08;10.40;99.90
70074;DHT22;57445;51.058;3.698;2023-04-01T09:50:46;10.40;99.90
70074;DHT22;57445;51.058;3.698;2023-04-01T09:53:36;10.50;99.90
70074;DHT22;57445;51.058;3.698;2023-04-01T09:56:36;10.50;99.90
70074;DHT22;57445;51.058;3.698;2023-04-01T10:02:46;10.50;99.90
70074;DHT22;57445;51.058;3.698;2023-04-01T10:05:56;10.70;99.90
70074;DHT22;57445;51.058;3.698;2023-04-01T10:09:09;10.90;99.90
70074;DHT22;57445;51.058;3.698;2023-04-01T10:15:23;11.00;99.90
70074;DHT22;57445;51.058;3.698;2023-04-01T10:18:24;11.00;99.90
70074;DHT22;57445;51.058;3.698;2023-04-01T10:21:16;10.60;99.90
70074;DHT22;57445;51.058;3.698;2023-04-01T10:27:44;10.60;99.90
70074;DHT22;57445;51.058;3.698;2023-04-01T10:36:50;10.70;99.90
70074;DHT22;57445;51.058;3.698;2023-04-01T10:49:24;10.80;99.90
70074;DHT22;57445;51.058;3.698;2023-04-01T10:55:06;10.80;99.90
70074;DHT22;57445;51.058;3.698;2023-04-01T10:58:05;10.80;99.90
70074;DHT22;57445;51.058;3.698;2023-04-01T11:01:07;10.70;99.90
70074;DHT22;57445;51.058;3.698;2023-04-01T11:04:13;10.50;99.90
70074;DHT22;57445;51.058;3.698;2023-04-01T11:07:16;10.50;99.90
70074;DHT22;57445;51.058;3.698;2023-04-01T11:13:19;11.00;99.90
70074;DHT22;57445;51.058;3.698;2023-04-01T11:16:24;10.90;99.90
70074;DHT22;57445;51.058;3.698;2023-04-01T11:25:19;10.60;99.90
70074;DHT22;57445;51.058;3.698;2023-04-01T11:31:09;10.90;99.90
70074;DHT22;57445;51.058;3.698;2023-04-01T11:33:44;10.90;99.90
70074;DHT22;57445;51.058;3.698;2023-04-01T11:36:25;10.80;99.90
70074;DHT22;57445;51.058;3.698;2023-04-01T11:39:11;10.80;99.90
70074;DHT22;57445;51.058;3.698;2023-04-01T11:41:54;10.70;99.90
70074;DHT22;57445;51.058;3.698;2023-04-01T11:44:25;10.90;99.90
70074;DHT22;57445;51.058;3.698;2023-04-01T11:47:19;10.80;99.90
70074;DHT22;57445;51.058;3.698;2023-04-01T11:50:03;11.00;99.90
70074;DHT22;57445;51.058;3.698;2023-04-01T11:53:00;10.90;99.90
70074;DHT22;57445;51.058;3.698;2023-04-01T11:55:42;11.00;99.90
70074;DHT22;57445;51.058;3.698;2023-04-01T12:01:26;10.90;99.90
70074;DHT22;57445;51.058;3.698;2023-04-01T12:04:27;10.80;99.90
70074;DHT22;57445;51.058;3.698;2023-04-01T12:07:05;10.80;99.90
70074;DHT22;57445;51.058;3.698;2023-04-01T12:09:49;10.80;99.90
70074;DHT22;57445;51.058;3.698;2023-04-01T12:12:27;10.80;99.90
70074;DHT22;57445;51.058;3.698;2023-04-01T12:15:16;10.80;99.90
70074;DHT22;57445;51.058;3.698;2023-04-01T12:17:58;10.90;99.90
70074;DHT22;57445;51.058;3.698;2023-04-01T12:20:43;10.90;99.90
70074;DHT22;57445;51.058;3.698;2023-04-01T12:23:37;11.00;99.90
70074;DHT22;57445;51.058;3.698;2023-04-01T12:26:23;11.00;99.90
70074;DHT22;57445;51.058;3.698;2023-04-01T12:29:12;11.20;99.90
70074;DHT22;57445;51.058;3.698;2023-04-01T12:31:53;11.20;99.90
70074;DHT22;57445;51.058;3.698;2023-04-01T12:34:48;11.10;99.90
70074;DHT22;57445;51.058;3.698;2023-04-01T12:37:24;11.20;99.90
70074;DHT22;57445;51.058;3.698;2023-04-01T12:40:17;11.00;99.90
70074;DHT22;57445;51.058;3.698;2023-04-01T12:43:04;11.10;99.90
70074;DHT22;57445;51.058;3.698;2023-04-01T12:45:34;11.00;99.90
70074;DHT22;57445;51.058;3.698;2023-04-01T12:48:23;10.80;99.90
70074;DHT22;57445;51.058;3.698;2023-04-01T12:54:08;11.00;99.90
70074;DHT22;57445;51.058;3.698;2023-04-01T12:56:52;10.90;99.90
70074;DHT22;57445;51.058;3.698;2023-04-01T12:59:40;10.90;99.90
70074;DHT22;57445;51.058;3.698;2023-04-01T13:02:20;11.10;99.90
70074;DHT22;57445;51.058;3.698;2023-04-01T13:05:09;11.10;99.90
70074;DHT22;57445;51.058;3.698;2023-04-01T13:08:09;11.00;99.90
70074;DHT22;57445;51.058;3.698;2023-04-01T13:10:55;10.80;99.90
70074;DHT22;57445;51.058;3.698;2023-04-01T13:13:55;10.70;99.90
70074;DHT22;57445;51.058;3.698;2023-04-01T13:16:36;10.90;99.90
70074;DHT22;57445;51.058;3.698;2023-04-01T13:19:09;10.80;99.90
70074;DHT22;57445;51.058;3.698;2023-04-01T13:21:53;10.80;99.90
70074;DHT22;57445;51.058;3.698;2023-04-01T13:24:36;10.90;99.90
70074;DHT22;57445;51.058;3.698;2023-04-01T13:27:09;10.80;99.90
70074;DHT22;57445;51.058;3.698;2023-04-01T13:29:45;10.80;99.90
70074;DHT22;57445;51.058;3.698;2023-04-01T13:32:25;10.90;99.90
70074;DHT22;57445;51.058;3.698;2023-04-01T13:35:08;10.90;99.90
70074;DHT22;57445;51.058;3.698;2023-04-01T13:37:54;10.90;99.90
70074;DHT22;57445;51.058;3.698;2023-04-01T13:40:33;10.90;99.90
70074;DHT22;57445;51.058;3.698;2023-04-01T13:43:10;10.90;99.90
70074;DHT22;57445;51.058;3.698;2023-04-01T13:45:51;11.00;99.90
70074;DHT22;57445;51.058;3.698;2023-04-01T13:48:46;11.00;99.90
70074;DHT22;57445;51.058;3.698;2023-04-01T13:51:30;10.90;99.90
70074;DHT22;57445;51.058;3.698;2023-04-01T13:54:47;10.90;99.90
70074;DHT22;57445;51.058;3.698;2023-04-01T13:57:30;10.80;99.90
70074;DHT22;57445;51.058;3.698;2023-04-01T14:00:19;10.80;99.90
70074;DHT22;57445;51.058;3.698;2023-04-01T14:06:15;10.70;99.90
70074;DHT22;57445;51.058;3.698;2023-04-01T14:09:01;10.90;99.90
70074;DHT22;57445;51.058;3.698;2023-04-01T14:11:39;10.80;99.90
70074;DHT22;57445;51.058;3.698;2023-04-01T14:14:18;11.00;99.90
70074;DHT22;57445;51.058;3.698;2023-04-01T14:17:02;11.10;99.90
70074;DHT22;57445;51.058;3.698;2023-04-01T14:22:51;11.10;99.90
70074;DHT22;57445;51.058;3.698;2023-04-01T14:25:43;10.90;99.90
70074;DHT22;57445;51.058;3.698;2023-04-01T14:28:23;10.90;99.90
70074;DHT22;57445;51.058;3.698;2023-04-01T14:31:12;10.90;99.90
70074;DHT22;57445;51.058;3.698;2023-04-01T14:33:58;11.00;99.90
70074;DHT22;57445;51.058;3.698;2023-04-01T14:36:53;11.00;99.90
70074;DHT22;57445;51.058;3.698;2023-04-01T14:42:46;11.00;99.90
70074;DHT22;57445;51.058;3.698;2023-04-01T14:45:45;11.00;99.90
70074;DHT22;57445;51.058;3.698;2023-04-01T14:48:23;11.00;99.90
70074;DHT22;57445;51.058;3.698;2023-04-01T14:50:54;10.90;99.90
70074;DHT22;57445;51.058;3.698;2023-04-01T14:53:27;10.70;99.90
70074;DHT22;57445;51.058;3.698;2023-04-01T14:55:58;10.80;99.90
70074;DHT22;57445;51.058;3.698;2023-04-01T14:58:41;10.60;99.90
70074;DHT22;57445;51.058;3.698;2023-04-01T15:01:20;10.50;99.90
70074;DHT22;57445;51.058;3.698;2023-04-01T15:03:57;10.60;99.90
70074;DHT22;57445;51.058;3.698;2023-04-01T15:06:55;10.60;99.90
70074;DHT22;57445;51.058;3.698;2023-04-01T15:09:34;10.60;99.90
70074;DHT22;57445;51.058;3.698;2023-04-01T15:12:17;10.70;99.90
70074;DHT22;57445;51.058;3.698;2023-04-01T15:15:14;10.70;99.90
70074;DHT22;57445;51.058;3.698;2023-04-01T15:18:03;10.70;99.90
70074;DHT22;57445;51.058;3.698;2023-04-01T15:21:02;10.60;99.90
70074;DHT22;57445;51.058;3.698;2023-04-01T15:23:46;10.60;99.90
70074;DHT22;57445;51.058;3.698;2023-04-01T15:29:26;10.60;99.90
70074;DHT22;57445;51.058;3.698;2023-04-01T15:32:04;10.70;99.90
70074;DHT22;57445;51.058;3.698;2023-04-01T15:34:43;10.80;99.90
70074;DHT22;57445;51.058;3.698;2023-04-01T15:37:22;10.80;99.90
70074;DHT22;57445;51.058;3.698;2023-04-01T15:39:59;11.00;99.90
70074;DHT22;57445;51.058;3.698;2023-04-01T15:42:44;10.70;99.90
70074;DHT22;57445;51.058;3.698;2023-04-01T15:45:21;10.60;99.90
70074;DHT22;57445;51.058;3.698;2023-04-01T15:47:59;10.60;99.90
70074;DHT22;57445;51.058;3.698;2023-04-01T15:50:56;10.50;99.90
70074;DHT22;57445;51.058;3.698;2023-04-01T15:56:45;10.40;99.90
70074;DHT22;57445;51.058;3.698;2023-04-01T15:59:28;10.40;99.90
70074;DHT22;57445;51.058;3.698;2023-04-01T16:02:13;10.70;99.90
70074;DHT22;57445;51.058;3.698;2023-04-01T16:04:54;10.60;99.90
70074;DHT22;57445;51.058;3.698;2023-04-01T16:10:57;10.60;99.90
70074;DHT22;57445;51.058;3.698;2023-04-01T16:13:52;10.80;99.90
70074;DHT22;57445;51.058;3.698;2023-04-01T16:16:37;10.80;99.90
70074;DHT22;57445;51.058;3.698;2023-04-01T16:19:41;10.50;99.90
70074;DHT22;57445;51.058;3.698;2023-04-01T16:22:18;10.50;99.90
70074;DHT22;57445;51.058;3.698;2023-04-01T16:24:56;10.30;99.90
70074;DHT22;57445;51.058;3.698;2023-04-01T16:27:33;10.20;99.90
70074;DHT22;57445;51.058;3.698;2023-04-01T16:30:24;10.10;99.90
70074;DHT22;57445;51.058;3.698;2023-04-01T16:33:02;10.20;99.90
70074;DHT22;57445;51.058;3.698;2023-04-01T16:35:38;10.00;99.90
70074;DHT22;57445;51.058;3.698;2023-04-01T16:38:20;9.90;99.90
70074;DHT22;57445;51.058;3.698;2023-04-01T16:41:10;10.00;99.90
70074;DHT22;57445;51.058;3.698;2023-04-01T16:43:42;10.10;99.90
70074;DHT22;57445;51.058;3.698;2023-04-01T16:46:28;9.90;99.90
70074;DHT22;57445;51.058;3.698;2023-04-01T16:49:14;9.80;99.90
70074;DHT22;57445;51.058;3.698;2023-04-01T16:51:47;9.80;99.90
70074;DHT22;57445;51.058;3.698;2023-04-01T16:54:28;9.70;99.90
70074;DHT22;57445;51.058;3.698;2023-04-01T16:57:17;9.80;99.90
70074;DHT22;57445;51.058;3.698;2023-04-01T16:59:55;9.80;99.90
70074;DHT22;57445;51.058;3.698;2023-04-01T17:02:30;9.80;99.90
70074;DHT22;57445;51.058;3.698;2023-04-01T17:05:05;9.70;99.90
70074;DHT22;57445;51.058;3.698;2023-04-01T17:07:44;9.70;99.90
70074;DHT22;57445;51.058;3.698;2023-04-01T17:10:37;9.70;99.90
70074;DHT22;57445;51.058;3.698;2023-04-01T17:13:29;9.80;99.90
70074;DHT22;57445;51.058;3.698;2023-04-01T17:16:10;9.80;99.90
70074;DHT22;57445;51.058;3.698;2023-04-01T17:18:50;9.80;99.90
70074;DHT22;57445;51.058;3.698;2023-04-01T17:21:27;9.80;99.90
70074;DHT22;57445;51.058;3.698;2023-04-01T17:24:04;9.80;99.90
70074;DHT22;57445;51.058;3.698;2023-04-01T17:26:39;9.70;99.90
70074;DHT22;57445;51.058;3.698;2023-04-01T17:29:19;9.60;99.90
70074;DHT22;57445;51.058;3.698;2023-04-01T17:32:03;9.60;99.90
70074;DHT22;57445;51.058;3.698;2023-04-01T17:34:54;9.50;99.90
70074;DHT22;57445;51.058;3.698;2023-04-01T17:37:43;9.60;99.90
70074;DHT22;57445;51.058;3.698;2023-04-01T17:40:28;9.60;99.90
70074;DHT22;57445;51.058;3.698;2023-04-01T17:43:10;9.60;99.90
70074;DHT22;57445;51.058;3.698;2023-04-01T17:45:52;9.50;99.90
70074;DHT22;57445;51.058;3.698;2023-04-01T17:48:29;9.40;99.90
70074;DHT22;57445;51.058;3.698;2023-04-01T17:51:17;9.40;99.90
70074;DHT22;57445;51.058;3.698;2023-04-01T17:53:52;9.50;99.90
70074;DHT22;57445;51.058;3.698;2023-04-01T17:56:39;9.50;99.90
70074;DHT22;57445;51.058;3.698;2023-04-01T17:59:19;9.40;99.90
70074;DHT22;57445;51.058;3.698;2023-04-01T18:02:05;9.40;99.90
70074;DHT22;57445;51.058;3.698;2023-04-01T18:05:05;9.40;99.90
70074;DHT22;57445;51.058;3.698;2023-04-01T18:07:57;9.30;99.90
70074;DHT22;57445;51.058;3.698;2023-04-01T18:10:38;9.20;99.90
70074;DHT22;57445;51.058;3.698;2023-04-01T18:13:41;9.20;99.90
70074;DHT22;57445;51.058;3.698;2023-04-01T18:16:20;9.10;99.90
70074;DHT22;57445;51.058;3.698;2023-04-01T18:19:01;9.10;99.90
70074;DHT22;57445;51.058;3.698;2023-04-01T18:21:36;9.10;99.90
70074;DHT22;57445;51.058;3.698;2023-04-01T18:24:16;9.00;99.90